Wilmington, OH

11:15 PM EDT on September 15, 2014 (GMT -0400)
Country Manor | Change Station
CLOSE
Current Station
Personal Weather Station
Location: Wilmington, OH
Elevation: 1004 ft
Nearby Weather Stations

Elev 1004 ft 39.44 °N, 83.90 °W | Updated 2 seconds ago

Light Rain
Light Rain Mist
57.6 °F
Feels Like 57.6 °F
N
2.0
Wind Variable Wind from WSW
Gusts 5.0 mph

Today
High -- | Low -- °F
--% Chance of Precip.
Yesterday
High -- | Low -- °F
Precip. -- in
7:16 AM 7:43 PM
Waning Gibbous, 50% visible
Pressure 30.11 in
Visibility 2.5 miles
Clouds Few 900 ft
Mostly Cloudy 2200 ft
Overcast 2900 ft
Dew Point 55 °F
Humidity 91%
Rainfall 0.05 in
Snow Depth Not available.
UV 0 out of 12
Pollen 6.00 out of 12
Ozone Good
PM2.5 Good
Flu Activity Not available.
SPECI KILN 160303Z AUTO 29010KT 2 1/2SM -RA BR FEW009 BKN022 OVC029 14/13 A3011 RMK AO2 P0000 T01440128

More Conditions Fewer Conditions

Pressure 30.11 in
Visibility 2.5 miles
Clouds Few 900 ft
Mostly Cloudy 2200 ft
Overcast 2900 ft
Dew Point 55 °F
Humidity 91%
Rainfall 0.05 in
Snow Depth Not available.
UV 0 out of 12
Pollen 6.00 out of 12
Ozone Good
PM2.5 Good
Flu Activity Not available.
SPECI KILN 160303Z AUTO 29010KT 2 1/2SM -RA BR FEW009 BKN022 OVC029 14/13 A3011 RMK AO2 P0000 T01440128

More Conditions Fewer Conditions

10-Day Weather Forecast

Almanac

Astronomy

Sep. 15, 2014 Rise Set
Actual Time 7:16 AM EDT 7:43 PM EDT
Civil Twilight 6:49 AM EDT 8:10 PM EDT
Nautical Twilight 6:17 AM EDT 8:42 PM EDT
Astronomical Twilight 5:45 AM EDT 9:14 PM EDT
Moon No Moon Rise 2:14 PM EDT (9/15)
Length of Visible Light 13h 21m
Length of Day
12h 27m
Tomorrow will be 2m 33s shorter.
Waning Gibbous, 50% of the Moon is Illuminated
Today
Waning Gibbous
Sep 24
New
Oct 1
First Quarter
Oct 8
Full
Oct 15
Last Quarter

Today's Extremes

State Highs State Lows

Community

WunderPhotos

Upload Photos

1,753,694 photos uploaded!

Nearby

Air Quality

  Air Quality AQ Index Pollutant
Yesterday Good
OZONE
Yesterday Good
PM2.5
Current Good
PM2.5
Current Good
OZONE
Monday Good
PM2.5
Monday Good
OZONE
Tuesday Good
OZONE
Tuesday Good
PM2.5
Wednesday Good
OZONE
Wednesday Good
PM2.5
Thursday Good
PM2.5
Thursday Good
OZONE
Friday Good
PM2.5
Friday Good
OZONE

Snow Depth

Station Depth Elevation
No new snow has been reported.

Earthquake Activity

City Distance Mag. Time & Date
No recent earthquake activity has been reported nearby.
Minimum magnitude displayed is 2.5.

Coastal Water Temperatures

Place Temperature
No Stations Reporting

Nearby Weather Stations